createdAt,value
2023-02-06T00:01:19.256Z,100.00
2023-02-06T00:03:45.753Z,100.00
2023-02-06T00:06:12.704Z,100.00
2023-02-06T00:08:39.201Z,100.00
2023-02-06T00:11:07.470Z,100.00
2023-02-06T00:13:35.027Z,100.00
2023-02-06T00:16:01.661Z,100.00
2023-02-06T00:18:28.440Z,100.00
2023-02-06T00:20:54.984Z,100.00
2023-02-06T00:23:21.468Z,100.00
2023-02-06T00:25:48.021Z,100.00
2023-02-06T00:28:14.581Z,100.00
2023-02-06T00:30:41.090Z,100.00
2023-02-06T00:33:07.549Z,100.00
2023-02-06T00:35:34.321Z,100.00
2023-02-06T00:38:02.449Z,100.00
2023-02-06T00:40:29.428Z,100.00
2023-02-06T00:42:55.942Z,100.00
2023-02-06T00:45:22.717Z,100.00
2023-02-06T00:47:49.170Z,100.00
2023-02-06T00:50:16.086Z,100.00
2023-02-06T00:52:42.634Z,100.00
2023-02-06T00:55:09.118Z,100.00
2023-02-06T00:57:35.586Z,100.00
2023-02-06T01:00:03.211Z,100.00
2023-02-06T01:02:29.708Z,100.00
2023-02-06T01:04:56.215Z,100.00
2023-02-06T01:07:22.752Z,100.00
2023-02-06T01:09:49.202Z,100.00
2023-02-06T01:12:15.849Z,100.00
2023-02-06T01:14:42.425Z,100.00
2023-02-06T01:17:10.217Z,100.00
2023-02-06T01:19:38.138Z,100.00
2023-02-06T01:22:05.247Z,100.00
2023-02-06T01:24:31.811Z,100.00
2023-02-06T01:26:58.493Z,100.00
2023-02-06T01:29:24.948Z,100.00
2023-02-06T01:31:51.381Z,100.00
2023-02-06T01:34:17.907Z,100.00
2023-02-06T01:36:44.401Z,100.00
2023-02-06T01:39:10.866Z,100.00
2023-02-06T01:41:37.582Z,100.00
2023-02-06T01:44:17.729Z,100.00
2023-02-06T01:46:46.726Z,100.00
2023-02-06T01:49:21.033Z,100.00
2023-02-06T01:51:49.278Z,100.00
2023-02-06T01:54:15.992Z,100.00
2023-02-06T01:56:48.360Z,100.00
2023-02-06T01:59:14.922Z,100.00
2023-02-06T02:01:41.953Z,100.00
2023-02-06T02:04:13.096Z,100.00
2023-02-06T02:06:40.089Z,100.00
2023-02-06T02:09:07.136Z,100.00
2023-02-06T02:11:36.290Z,100.00
2023-02-06T02:14:04.861Z,100.00
2023-02-06T02:16:48.683Z,100.00
2023-02-06T02:19:49.236Z,100.00
2023-02-06T02:22:39.774Z,100.00
2023-02-06T02:25:06.337Z,100.00
2023-02-06T02:27:41.737Z,100.00
2023-02-06T02:30:32.790Z,100.00
2023-02-06T02:33:34.939Z,100.00
2023-02-06T02:36:13.368Z,100.00
2023-02-06T02:38:57.140Z,100.00
2023-02-06T02:41:37.759Z,100.00
2023-02-06T02:44:08.332Z,100.00
2023-02-06T02:46:40.870Z,100.00
2023-02-06T02:49:17.310Z,100.00
2023-02-06T02:51:44.265Z,100.00
2023-02-06T02:54:10.859Z,100.00
2023-02-06T02:56:38.526Z,100.00
2023-02-06T02:59:16.042Z,100.00
2023-02-06T03:02:03.282Z,100.00
2023-02-06T03:05:04.281Z,100.00
2023-02-06T03:07:38.868Z,100.00
2023-02-06T03:10:15.525Z,100.00
2023-02-06T03:13:03.301Z,100.00
2023-02-06T03:15:45.914Z,100.00
2023-02-06T03:18:18.052Z,100.00
2023-02-06T03:20:45.995Z,100.00
2023-02-06T03:23:17.229Z,100.00
2023-02-06T03:25:45.583Z,100.00
2023-02-06T03:28:16.897Z,100.00
2023-02-06T03:30:46.253Z,100.00
2023-02-06T03:33:15.535Z,100.00
2023-02-06T03:35:42.271Z,100.00
2023-02-06T03:38:09.142Z,100.00
2023-02-06T03:40:36.317Z,100.00
2023-02-06T03:43:03.983Z,100.00
2023-02-06T03:45:39.271Z,100.00
2023-02-06T03:48:10.341Z,100.00
2023-02-06T03:50:39.569Z,100.00
2023-02-06T03:53:06.411Z,100.00
2023-02-06T03:55:32.877Z,100.00
2023-02-06T03:58:03.768Z,100.00
2023-02-06T04:00:31.043Z,100.00
2023-02-06T04:02:58.529Z,100.00
2023-02-06T04:05:34.806Z,100.00
2023-02-06T04:08:05.724Z,100.00
2023-02-06T04:10:32.394Z,100.00
2023-02-06T04:12:58.867Z,100.00
2023-02-06T04:15:25.511Z,100.00
2023-02-06T04:18:00.105Z,100.00
2023-02-06T04:20:28.279Z,100.00
2023-02-06T04:22:54.828Z,100.00
2023-02-06T04:25:21.485Z,100.00
2023-02-06T04:27:47.998Z,100.00
2023-02-06T04:30:15.661Z,100.00
2023-02-06T04:32:42.286Z,100.00
2023-02-06T04:35:08.983Z,100.00
2023-02-06T04:37:35.686Z,100.00
2023-02-06T04:40:02.241Z,100.00
2023-02-06T04:42:28.729Z,100.00
2023-02-06T04:44:55.199Z,100.00
2023-02-06T04:47:21.769Z,100.00
2023-02-06T04:49:48.277Z,100.00
2023-02-06T04:52:14.775Z,100.00
2023-02-06T04:54:41.197Z,100.00
2023-02-06T04:57:07.697Z,100.00
2023-02-06T04:59:34.173Z,100.00
2023-02-06T05:02:01.581Z,100.00
2023-02-06T05:04:28.125Z,100.00
2023-02-06T05:06:54.599Z,100.00
2023-02-06T05:09:21.078Z,100.00
2023-02-06T05:11:47.552Z,100.00
2023-02-06T05:14:14.129Z,100.00
2023-02-06T05:16:40.596Z,100.00
2023-02-06T05:19:07.117Z,100.00
2023-02-06T05:21:33.601Z,100.00
2023-02-06T05:24:00.047Z,100.00
2023-02-06T05:26:26.488Z,100.00
2023-02-06T05:28:53.141Z,100.00
2023-02-06T05:31:20.264Z,100.00
2023-02-06T05:33:51.112Z,100.00
2023-02-06T05:36:18.901Z,100.00
2023-02-06T05:38:45.598Z,100.00
2023-02-06T05:41:12.715Z,100.00
2023-02-06T05:43:39.209Z,100.00
2023-02-06T05:46:05.912Z,100.00
2023-02-06T05:48:34.428Z,100.00
2023-02-06T05:51:01.402Z,100.00
2023-02-06T05:53:27.947Z,100.00
2023-02-06T05:55:54.594Z,100.00
2023-02-06T05:58:21.254Z,100.00
2023-02-06T06:00:47.763Z,100.00
2023-02-06T06:03:14.340Z,100.00
2023-02-06T06:05:40.808Z,100.00
2023-02-06T06:08:07.283Z,100.00
2023-02-06T06:10:33.806Z,100.00
2023-02-06T06:13:00.361Z,100.00
2023-02-06T06:15:26.855Z,100.00
2023-02-06T06:17:53.370Z,100.00
2023-02-06T06:20:19.956Z,100.00
2023-02-06T06:22:46.458Z,100.00
2023-02-06T06:25:13.169Z,100.00
2023-02-06T06:27:39.749Z,100.00
2023-02-06T06:30:06.718Z,100.00
2023-02-06T06:32:33.240Z,100.00
2023-02-06T06:34:59.841Z,100.00
2023-02-06T06:37:26.398Z,100.00
2023-02-06T06:39:52.916Z,100.00
2023-02-06T06:42:19.526Z,100.00
2023-02-06T06:44:46.326Z,100.00
2023-02-06T06:47:13.315Z,100.00
2023-02-06T06:49:39.886Z,100.00
2023-02-06T06:52:13.406Z,100.00
2023-02-06T06:54:46.329Z,100.00
2023-02-06T06:57:13.350Z,100.00
2023-02-06T06:59:40.216Z,100.00
2023-02-06T07:02:07.334Z,100.00
2023-02-06T07:04:33.895Z,100.00
2023-02-06T07:07:00.431Z,100.00
2023-02-06T07:09:27.130Z,100.00
2023-02-06T07:11:53.661Z,100.00
2023-02-06T07:14:20.264Z,100.00
2023-02-06T07:16:47.140Z,100.00
2023-02-06T07:19:13.688Z,100.00
2023-02-06T07:21:40.453Z,100.00
2023-02-06T07:24:07.209Z,100.00
2023-02-06T07:26:33.798Z,100.00
2023-02-06T07:29:00.319Z,100.00
2023-02-06T07:31:26.947Z,100.00
2023-02-06T07:33:53.437Z,100.00
2023-02-06T07:36:20.131Z,100.00
2023-02-06T07:38:46.782Z,100.00
2023-02-06T07:41:13.294Z,100.00
2023-02-06T07:43:39.886Z,100.00
2023-02-06T07:46:06.548Z,100.00
2023-02-06T07:48:33.024Z,100.00
2023-02-06T07:51:05.240Z,100.00
2023-02-06T07:53:31.742Z,100.00
2023-02-06T07:55:58.266Z,100.00
2023-02-06T07:58:25.679Z,100.00
2023-02-06T08:00:52.299Z,100.00
2023-02-06T08:03:19.062Z,100.00
2023-02-06T08:05:45.535Z,100.00
2023-02-06T08:08:12.577Z,100.00
2023-02-06T08:10:39.824Z,100.00
2023-02-06T08:13:06.318Z,100.00
2023-02-06T08:15:33.319Z,100.00
2023-02-06T08:17:59.941Z,100.00
2023-02-06T08:20:26.638Z,100.00
2023-02-06T08:22:54.147Z,100.00
2023-02-06T08:25:20.662Z,100.00
2023-02-06T08:27:47.369Z,100.00
2023-02-06T08:30:14.023Z,100.00
2023-02-06T08:32:40.472Z,100.00
2023-02-06T08:35:07.103Z,100.00
2023-02-06T08:37:33.550Z,100.00
2023-02-06T08:40:00.062Z,100.00
2023-02-06T08:42:26.536Z,100.00
2023-02-06T08:44:53.808Z,100.00
2023-02-06T08:47:20.297Z,100.00
2023-02-06T08:49:50.644Z,100.00
2023-02-06T08:52:17.684Z,100.00
2023-02-06T08:54:44.169Z,100.00
2023-02-06T08:57:12.771Z,100.00
2023-02-06T08:59:39.311Z,100.00
2023-02-06T09:02:08.276Z,100.00
2023-02-06T09:04:37.596Z,100.00
2023-02-06T09:07:04.301Z,100.00
2023-02-06T09:09:30.923Z,100.00
2023-02-06T09:12:02.222Z,98.72
2023-02-06T09:14:29.403Z,94.53
2023-02-06T09:16:58.192Z,95.56
2023-02-06T09:19:25.457Z,94.73
2023-02-06T09:21:51.952Z,96.27
2023-02-06T09:24:18.522Z,94.90
2023-02-06T09:26:58.918Z,95.25
2023-02-06T09:29:28.948Z,93.90
2023-02-06T09:31:57.326Z,91.94
2023-02-06T09:34:25.694Z,91.86
2023-02-06T09:36:54.564Z,93.09
2023-02-06T09:39:21.476Z,93.57
2023-02-06T09:41:52.056Z,94.16
2023-02-06T09:44:33.140Z,96.04
2023-02-06T09:47:05.344Z,96.80
2023-02-06T09:49:46.553Z,96.50
2023-02-06T09:52:28.031Z,95.07
2023-02-06T09:55:10.241Z,96.13
2023-02-06T09:57:51.638Z,95.16
2023-02-06T10:00:31.640Z,95.88
2023-02-06T10:02:58.405Z,94.26
2023-02-06T10:05:35.098Z,93.09
2023-02-06T10:08:19.828Z,93.90
2023-02-06T10:10:51.886Z,90.69
2023-02-06T10:13:41.196Z,92.11
2023-02-06T10:16:30.879Z,92.19
2023-02-06T10:19:03.226Z,92.64
2023-02-06T10:21:42.950Z,92.63
2023-02-06T10:24:45.481Z,89.72
2023-02-06T10:27:14.241Z,90.46
2023-02-06T10:29:42.238Z,91.06
2023-02-06T10:32:14.286Z,89.63
2023-02-06T10:35:07.659Z,90.30
2023-02-06T10:38:04.861Z,92.46
2023-02-06T10:40:43.708Z,93.73
2023-02-06T10:43:48.536Z,95.50
2023-02-06T10:46:51.006Z,94.87
2023-02-06T10:49:23.250Z,94.99
2023-02-06T10:51:56.480Z,97.00
2023-02-06T10:54:47.557Z,97.98
2023-02-06T10:57:19.512Z,96.93
2023-02-06T10:59:48.596Z,97.36
2023-02-06T11:02:42.544Z,97.43
2023-02-06T11:05:14.659Z,97.90
2023-02-06T11:07:43.937Z,98.98
2023-02-06T11:10:21.861Z,98.54
2023-02-06T11:12:52.159Z,99.14
2023-02-06T11:15:24.997Z,98.02
2023-02-06T11:17:52.278Z,97.83
2023-02-06T11:20:25.164Z,96.93
2023-02-06T11:22:53.437Z,98.19
2023-02-06T11:25:31.404Z,97.19
2023-02-06T11:27:58.856Z,96.05
2023-02-06T11:30:34.819Z,96.65
2023-02-06T11:33:07.494Z,96.57
2023-02-06T11:35:38.894Z,96.62
2023-02-06T11:38:17.976Z,97.35
2023-02-06T11:41:06.707Z,97.80
2023-02-06T11:43:42.341Z,99.31
2023-02-06T11:46:20.919Z,98.60
2023-02-06T11:48:56.195Z,98.96
2023-02-06T11:51:24.070Z,98.96
2023-02-06T11:54:03.762Z,98.72
2023-02-06T11:56:31.590Z,99.62
2023-02-06T11:59:07.358Z,99.78
2023-02-06T12:01:51.765Z,100.00
2023-02-06T12:04:28.189Z,100.00
2023-02-06T12:07:00.756Z,100.00
2023-02-06T12:09:28.033Z,100.00
2023-02-06T12:11:59.345Z,100.00
2023-02-06T12:14:31.697Z,99.39
2023-02-06T12:17:01.263Z,100.00
2023-02-06T12:19:31.730Z,99.76
2023-02-06T12:22:02.577Z,98.42
2023-02-06T12:24:32.291Z,98.18
2023-02-06T12:27:02.508Z,97.75
2023-02-06T12:29:35.121Z,96.40
2023-02-06T12:32:14.739Z,96.59
2023-02-06T12:34:54.366Z,96.64
2023-02-06T12:37:41.097Z,96.50
2023-02-06T12:40:38.368Z,97.80
2023-02-06T12:43:15.086Z,98.46
2023-02-06T12:46:01.384Z,98.65
2023-02-06T12:48:45.906Z,97.98
2023-02-06T12:51:21.494Z,98.95
2023-02-06T12:54:09.851Z,98.61
2023-02-06T12:56:44.260Z,99.08
2023-02-06T12:59:10.645Z,99.49
2023-02-06T13:01:45.987Z,98.89
2023-02-06T13:04:17.180Z,98.60
2023-02-06T13:06:50.361Z,98.42
2023-02-06T13:09:21.823Z,99.16
2023-02-06T13:11:48.572Z,99.54
2023-02-06T13:14:26.934Z,100.00
2023-02-06T13:16:59.341Z,98.80
2023-02-06T13:19:46.024Z,99.43
2023-02-06T13:22:17.359Z,98.73
2023-02-06T13:24:46.077Z,98.07
2023-02-06T13:27:33.241Z,98.82
2023-02-06T13:30:29.029Z,98.61
2023-02-06T13:33:13.710Z,99.48
2023-02-06T13:35:59.050Z,99.34
2023-02-06T13:38:34.297Z,99.12
2023-02-06T13:41:15.643Z,100.00
2023-02-06T13:43:54.465Z,99.04
2023-02-06T13:46:23.362Z,97.92
2023-02-06T13:49:23.552Z,97.25
2023-02-06T13:51:52.952Z,97.03
2023-02-06T13:54:39.080Z,97.57
2023-02-06T13:57:26.880Z,98.19
2023-02-06T13:59:57.774Z,98.74
2023-02-06T14:02:28.777Z,99.97
2023-02-06T14:04:56.085Z,99.72
2023-02-06T14:07:43.632Z,99.82
2023-02-06T14:10:37.771Z,99.82
2023-02-06T14:13:24.087Z,100.00
2023-02-06T14:15:58.850Z,100.00
2023-02-06T14:18:48.797Z,100.00
2023-02-06T14:21:22.393Z,98.82
2023-02-06T14:24:27.615Z,96.77
2023-02-06T14:27:15.783Z,95.96
2023-02-06T14:29:52.366Z,94.62
2023-02-06T14:32:30.652Z,96.19
2023-02-06T14:35:11.901Z,96.37
2023-02-06T14:38:06.963Z,97.83
2023-02-06T14:40:36.519Z,98.69
2023-02-06T14:43:05.846Z,99.17
2023-02-06T14:45:42.090Z,100.00
2023-02-06T14:48:23.629Z,100.00
2023-02-06T14:50:55.459Z,100.00
2023-02-06T14:53:29.495Z,100.00
2023-02-06T14:56:08.784Z,100.00
2023-02-06T14:58:35.833Z,100.00
2023-02-06T15:01:24.385Z,100.00
2023-02-06T15:03:52.744Z,100.00
2023-02-06T15:06:37.706Z,100.00
2023-02-06T15:09:05.288Z,100.00
2023-02-06T15:11:34.842Z,100.00
2023-02-06T15:14:15.264Z,100.00
2023-02-06T15:16:49.352Z,100.00
2023-02-06T15:19:21.648Z,100.00
2023-02-06T15:21:49.382Z,100.00
2023-02-06T15:24:30.328Z,100.00
2023-02-06T15:27:21.795Z,100.00
2023-02-06T15:29:50.454Z,100.00
2023-02-06T15:32:24.015Z,100.00
2023-02-06T15:34:50.634Z,100.00
2023-02-06T15:37:27.737Z,100.00
2023-02-06T15:39:54.452Z,100.00
2023-02-06T15:42:21.757Z,100.00
2023-02-06T15:44:49.636Z,100.00
2023-02-06T15:47:17.860Z,100.00
2023-02-06T15:49:47.793Z,100.00
2023-02-06T15:52:15.501Z,100.00
2023-02-06T15:54:44.921Z,100.00
2023-02-06T15:57:29.593Z,100.00
2023-02-06T15:59:59.029Z,100.00
2023-02-06T16:02:36.386Z,100.00
2023-02-06T16:05:04.202Z,100.00
2023-02-06T16:07:35.654Z,100.00
2023-02-06T16:10:18.742Z,100.00
2023-02-06T16:12:45.366Z,100.00
2023-02-06T16:15:27.217Z,100.00
2023-02-06T16:17:54.491Z,100.00
2023-02-06T16:20:37.348Z,100.00
2023-02-06T16:23:27.031Z,100.00
2023-02-06T16:26:15.611Z,100.00
2023-02-06T16:29:09.469Z,100.00
2023-02-06T16:31:38.494Z,100.00
2023-02-06T16:34:29.075Z,100.00
2023-02-06T16:36:55.669Z,100.00
2023-02-06T16:39:23.635Z,100.00
2023-02-06T16:41:51.927Z,100.00
2023-02-06T16:44:19.488Z,100.00
2023-02-06T16:46:46.545Z,100.00
2023-02-06T16:49:16.626Z,100.00
2023-02-06T16:51:43.833Z,100.00
2023-02-06T16:54:20.177Z,100.00
2023-02-06T16:56:46.867Z,100.00
2023-02-06T16:59:13.414Z,100.00
2023-02-06T17:01:39.982Z,100.00
2023-02-06T17:04:06.662Z,100.00
2023-02-06T17:06:34.319Z,100.00
2023-02-06T17:09:06.528Z,100.00
2023-02-06T17:11:33.476Z,100.00
2023-02-06T17:13:59.981Z,100.00
2023-02-06T17:16:27.210Z,100.00
2023-02-06T17:18:54.313Z,100.00
2023-02-06T17:21:22.257Z,100.00
2023-02-06T17:23:49.921Z,100.00
2023-02-06T17:26:21.674Z,100.00
2023-02-06T17:28:48.585Z,100.00
2023-02-06T17:31:15.635Z,100.00
2023-02-06T17:33:42.203Z,100.00
2023-02-06T17:36:18.904Z,100.00
2023-02-06T17:38:45.607Z,100.00
2023-02-06T17:41:12.925Z,100.00
2023-02-06T17:43:39.507Z,100.00
2023-02-06T17:46:06.824Z,100.00
2023-02-06T17:48:36.649Z,100.00
2023-02-06T17:51:05.115Z,100.00
2023-02-06T17:53:31.695Z,100.00
2023-02-06T17:56:03.884Z,100.00
2023-02-06T17:58:30.529Z,100.00
2023-02-06T18:00:57.198Z,100.00
2023-02-06T18:03:23.824Z,100.00
2023-02-06T18:06:00.443Z,100.00
2023-02-06T18:08:28.557Z,100.00
2023-02-06T18:10:55.507Z,100.00
2023-02-06T18:13:24.029Z,100.00
2023-02-06T18:15:55.668Z,100.00
2023-02-06T18:18:26.190Z,100.00
2023-02-06T18:20:52.744Z,100.00
2023-02-06T18:23:19.488Z,100.00
2023-02-06T18:25:46.035Z,100.00
2023-02-06T18:28:14.765Z,100.00
2023-02-06T18:30:42.104Z,100.00
2023-02-06T18:33:09.191Z,100.00
2023-02-06T18:35:39.317Z,100.00
2023-02-06T18:38:09.555Z,100.00
2023-02-06T18:40:40.678Z,100.00
2023-02-06T18:43:07.730Z,100.00
2023-02-06T18:45:36.902Z,100.00
2023-02-06T18:48:04.959Z,100.00
2023-02-06T18:50:32.004Z,100.00
2023-02-06T18:52:58.567Z,100.00
2023-02-06T18:55:25.382Z,100.00
2023-02-06T18:57:53.693Z,100.00
2023-02-06T19:00:22.057Z,100.00
2023-02-06T19:02:49.628Z,100.00
2023-02-06T19:05:16.360Z,100.00
2023-02-06T19:07:42.917Z,100.00
2023-02-06T19:10:12.914Z,100.00
2023-02-06T19:12:40.149Z,100.00
2023-02-06T19:15:06.901Z,100.00
2023-02-06T19:17:33.920Z,100.00
2023-02-06T19:20:00.398Z,100.00
2023-02-06T19:22:27.019Z,100.00
2023-02-06T19:24:53.541Z,100.00
2023-02-06T19:27:21.234Z,100.00
2023-02-06T19:29:48.009Z,100.00
2023-02-06T19:32:14.525Z,100.00
2023-02-06T19:34:41.995Z,100.00
2023-02-06T19:37:09.895Z,100.00
2023-02-06T19:39:39.938Z,100.00
2023-02-06T19:42:09.579Z,100.00
2023-02-06T19:44:37.023Z,100.00
2023-02-06T19:47:03.936Z,100.00
2023-02-06T19:49:30.683Z,100.00
2023-02-06T19:51:57.309Z,100.00
2023-02-06T19:54:23.946Z,100.00
2023-02-06T19:56:50.399Z,100.00
2023-02-06T19:59:22.609Z,100.00
2023-02-06T20:01:52.188Z,100.00
2023-02-06T20:04:20.887Z,100.00
2023-02-06T20:06:49.253Z,100.00
2023-02-06T20:09:15.940Z,100.00
2023-02-06T20:11:42.798Z,100.00
2023-02-06T20:14:10.150Z,100.00
2023-02-06T20:16:38.214Z,100.00
2023-02-06T20:19:15.626Z,100.00
2023-02-06T20:21:44.709Z,100.00
2023-02-06T20:24:18.537Z,100.00
2023-02-06T20:26:45.512Z,100.00
2023-02-06T20:29:19.737Z,100.00
2023-02-06T20:31:46.555Z,100.00
2023-02-06T20:34:13.635Z,100.00
2023-02-06T20:36:41.884Z,100.00
2023-02-06T20:39:11.796Z,100.00
2023-02-06T20:41:38.807Z,100.00
2023-02-06T20:44:05.852Z,100.00
2023-02-06T20:46:33.906Z,100.00
2023-02-06T20:49:02.946Z,100.00
2023-02-06T20:51:30.938Z,100.00
2023-02-06T20:53:58.225Z,100.00
2023-02-06T20:56:24.865Z,100.00
2023-02-06T20:58:51.485Z,100.00
2023-02-06T21:01:22.249Z,100.00
2023-02-06T21:03:49.429Z,100.00
2023-02-06T21:06:16.144Z,100.00
2023-02-06T21:08:43.058Z,100.00
2023-02-06T21:11:09.638Z,100.00
2023-02-06T21:13:36.381Z,100.00
2023-02-06T21:16:03.211Z,100.00
2023-02-06T21:18:31.093Z,100.00
2023-02-06T21:21:07.232Z,100.00
2023-02-06T21:23:34.075Z,100.00
2023-02-06T21:26:00.622Z,100.00
2023-02-06T21:28:27.130Z,100.00
2023-02-06T21:30:59.810Z,100.00
2023-02-06T21:33:26.407Z,100.00
2023-02-06T21:35:53.710Z,100.00
2023-02-06T21:38:20.787Z,100.00
2023-02-06T21:40:47.385Z,100.00
2023-02-06T21:43:17.011Z,100.00
2023-02-06T21:45:44.596Z,100.00
2023-02-06T21:48:11.552Z,100.00
2023-02-06T21:50:39.291Z,100.00
2023-02-06T21:53:05.924Z,100.00
2023-02-06T21:55:32.495Z,100.00
2023-02-06T21:58:00.607Z,100.00
2023-02-06T22:00:28.498Z,100.00
2023-02-06T22:02:54.993Z,100.00
2023-02-06T22:05:21.671Z,100.00
2023-02-06T22:07:48.140Z,100.00
2023-02-06T22:10:14.750Z,100.00
2023-02-06T22:12:41.238Z,100.00
2023-02-06T22:15:08.246Z,100.00
2023-02-06T22:17:35.450Z,100.00
2023-02-06T22:20:01.954Z,100.00
2023-02-06T22:22:28.551Z,100.00
2023-02-06T22:24:54.998Z,100.00
2023-02-06T22:27:21.551Z,100.00
2023-02-06T22:29:48.002Z,100.00
2023-02-06T22:32:14.452Z,100.00
2023-02-06T22:34:40.929Z,100.00
2023-02-06T22:37:07.391Z,100.00
2023-02-06T22:39:33.923Z,100.00
2023-02-06T22:42:00.624Z,100.00
2023-02-06T22:44:27.118Z,100.00
2023-02-06T22:46:53.659Z,100.00
2023-02-06T22:49:20.965Z,100.00
2023-02-06T22:51:47.527Z,100.00
2023-02-06T22:54:14.602Z,100.00
2023-02-06T22:56:42.340Z,100.00
2023-02-06T22:59:26.954Z,100.00
2023-02-06T23:01:56.270Z,100.00
2023-02-06T23:04:27.531Z,100.00
2023-02-06T23:06:54.146Z,100.00
2023-02-06T23:09:23.229Z,100.00
2023-02-06T23:11:50.690Z,100.00
2023-02-06T23:14:18.579Z,100.00
2023-02-06T23:16:45.433Z,100.00
2023-02-06T23:19:13.149Z,100.00
2023-02-06T23:21:41.164Z,100.00
2023-02-06T23:24:09.053Z,100.00
2023-02-06T23:26:35.919Z,100.00
2023-02-06T23:29:06.149Z,100.00
2023-02-06T23:31:32.985Z,100.00
2023-02-06T23:33:59.597Z,100.00
2023-02-06T23:36:27.139Z,100.00
2023-02-06T23:38:53.803Z,100.00
2023-02-06T23:41:23.302Z,100.00
2023-02-06T23:43:55.753Z,100.00
2023-02-06T23:46:22.859Z,100.00
2023-02-06T23:48:49.907Z,100.00
2023-02-06T23:51:17.493Z,100.00
2023-02-06T23:53:44.092Z,100.00
2023-02-06T23:56:12.868Z,100.00
2023-02-06T23:58:39.867Z,100.00
